Time;durP1;ratioP1;P1;durP2;ratioP2;P2;SDS_P1;SDS_P2;PMS_P1;PMS_P2;Temp;Humidity;BMP_temperature;BMP_pressure;BME280_temperature;BME280_humidity;BME280_pressure;Samples;Min_cycle;Max_cycle;Signal;HPM_P1;HPM_P2
2021/08/26 04:30:51;;;;;;;9.10;6.73;;;13.20;99.90;;;;;;5935074;23;21291;-76
2021/08/26 04:33:17;;;;;;;11.20;8.00;;;13.30;99.90;;;;;;4915728;29;20422;-73
2021/08/26 04:35:42;;;;;;;12.00;7.83;;;13.30;99.90;;;;;;4916610;29;20269;-74
2021/08/26 04:38:08;;;;;;;11.77;7.07;;;13.30;99.90;;;;;;4931181;29;20178;-74
2021/08/26 04:40:35;;;;;;;12.23;7.17;;;13.40;99.90;;;;;;4916607;29;20197;-76
2021/08/26 04:43:01;;;;;;;9.20;7.07;;;13.40;99.90;;;;;;4916468;29;20422;-75
2021/08/26 04:45:26;;;;;;;11.23;7.50;;;13.40;99.90;;;;;;4916393;29;20418;-77
2021/08/26 04:47:52;;;;;;;10.77;8.27;;;13.40;99.90;;;;;;4916359;29;20174;-77
2021/08/26 04:50:18;;;;;;;9.40;6.93;;;13.40;99.90;;;;;;4915872;29;20205;-77
2021/08/26 04:52:43;;;;;;;11.00;7.23;;;13.50;99.90;;;;;;4916258;29;20189;-77
2021/08/26 04:55:09;;;;;;;11.53;8.17;;;13.50;99.90;;;;;;4916214;29;20202;-77
2021/08/26 04:57:34;;;;;;;8.80;7.40;;;13.50;99.90;;;;;;4914708;29;20724;-77
2021/08/26 05:00:00;;;;;;;10.83;7.00;;;13.50;99.90;;;;;;4915980;29;20265;-77
2021/08/26 05:02:25;;;;;;;8.50;7.10;;;13.60;99.90;;;;;;4915104;29;20938;-80
2021/08/26 05:04:51;;;;;;;9.23;7.60;;;13.60;99.90;;;;;;4917017;29;20186;-80
2021/08/26 05:07:17;;;;;;;10.00;7.07;;;13.60;99.90;;;;;;4923560;29;20178;-78
2021/08/26 05:12:19;;;;;;;7.90;6.73;;;13.70;99.90;;;;;;4950420;29;20227;-76
2021/08/26 05:14:45;;;;;;;8.57;6.83;;;13.70;99.90;;;;;;4953604;29;20479;-80
2021/08/26 05:17:10;;;;;;;9.93;7.30;;;13.80;99.90;;;;;;4953602;29;20811;-79
2021/08/26 05:19:36;;;;;;;9.70;7.13;;;13.80;99.90;;;;;;4953510;29;20204;-80
2021/08/26 05:22:03;;;;;;;11.03;8.40;;;13.80;99.90;;;;;;4953158;29;20236;-79
2021/08/26 05:24:29;;;;;;;9.80;7.43;;;13.90;99.90;;;;;;4953517;28;20215;-80
2021/08/26 05:26:54;;;;;;;11.40;7.43;;;14.00;99.90;;;;;;4953624;28;20917;-80
2021/08/26 05:29:20;;;;;;;7.97;7.10;;;14.00;99.90;;;;;;4953274;29;20418;-80
2021/08/26 05:31:46;;;;;;;10.27;7.43;;;14.00;99.90;;;;;;4953218;29;20224;-80
2021/08/26 05:34:11;;;;;;;12.27;8.07;;;14.10;99.90;;;;;;4953102;29;20662;-80
2021/08/26 05:36:37;;;;;;;8.47;7.57;;;14.10;99.90;;;;;;4953603;29;20200;-80
2021/08/26 05:39:03;;;;;;;17.27;7.87;;;14.20;99.90;;;;;;4953068;29;20622;-79
2021/08/26 05:41:30;;;;;;;13.50;8.70;;;14.20;99.90;;;;;;4953295;29;20574;-80
2021/08/26 05:43:55;;;;;;;12.30;7.60;;;14.30;99.90;;;;;;4953246;29;20515;-80
2021/08/26 05:46:21;;;;;;;12.40;8.20;;;14.40;99.90;;;;;;4953321;29;20196;-81
2021/08/26 05:48:46;;;;;;;11.23;8.30;;;14.40;99.90;;;;;;4953232;29;20234;-80
2021/08/26 05:51:12;;;;;;;9.80;7.90;;;14.50;99.90;;;;;;4953110;29;20640;-81
2021/08/26 05:53:37;;;;;;;10.80;8.20;;;14.50;99.90;;;;;;4953272;29;20181;-80
2021/08/26 05:56:03;;;;;;;12.23;8.20;;;14.60;99.90;;;;;;4951918;29;20665;-78
2021/08/26 05:58:29;;;;;;;12.23;8.13;;;14.60;99.90;;;;;;4953139;29;20197;-79
2021/08/26 06:00:54;;;;;;;13.00;7.57;;;14.70;99.90;;;;;;4953203;28;20247;-80
2021/08/26 06:03:20;;;;;;;13.17;7.20;;;14.70;99.90;;;;;;4956874;29;20208;-80
2021/08/26 06:05:45;;;;;;;13.50;6.97;;;14.70;99.90;;;;;;4957088;28;20218;-79
2021/08/26 06:08:11;;;;;;;22.13;7.90;;;14.70;99.90;;;;;;4956607;29;20200;-79
2021/08/26 06:10:37;;;;;;;8.00;7.20;;;14.70;99.90;;;;;;4956515;29;20208;-79
2021/08/26 06:13:03;;;;;;;11.10;7.87;;;14.70;99.90;;;;;;4956727;29;20173;-79
2021/08/26 06:15:28;;;;;;;11.90;7.40;;;14.70;99.90;;;;;;4956804;29;20834;-81
2021/08/26 06:17:54;;;;;;;8.63;7.47;;;14.80;99.90;;;;;;4956645;29;20419;-80
2021/08/26 06:20:21;;;;;;;13.30;7.73;;;14.70;99.90;;;;;;4956441;29;20177;-80
2021/08/26 06:22:46;;;;;;;12.97;7.90;;;14.80;99.90;;;;;;4955340;29;20260;-80
2021/08/26 06:25:13;;;;;;;13.57;7.80;;;14.70;99.90;;;;;;4955129;29;20436;-75
2021/08/26 06:27:39;;;;;;;10.80;7.90;;;14.70;99.90;;;;;;4956770;29;20189;-76
2021/08/26 06:30:07;;;;;;;10.87;7.90;;;14.70;99.90;;;;;;4956543;29;20917;-77
2021/08/26 06:32:33;;;;;;;8.70;7.43;;;14.80;99.90;;;;;;4956220;29;20443;-78
2021/08/26 06:34:59;;;;;;;12.73;8.07;;;14.70;99.90;;;;;;4958048;28;20467;-77
2021/08/26 06:37:25;;;;;;;12.80;8.70;;;14.80;99.90;;;;;;4971053;28;20533;-77
2021/08/26 06:39:51;;;;;;;12.93;8.10;;;14.90;99.90;;;;;;4956020;29;20184;-77
2021/08/26 06:42:17;;;;;;;13.90;7.07;;;15.00;99.90;;;;;;4971393;28;20470;-77
2021/08/26 06:44:42;;;;;;;13.10;8.63;;;15.00;99.90;;;;;;4975570;28;20225;-77
2021/08/26 06:47:08;;;;;;;9.87;7.90;;;15.00;99.90;;;;;;4975387;28;20415;-77
2021/08/26 06:49:33;;;;;;;20.37;10.13;;;15.00;99.90;;;;;;4975216;28;20199;-76
2021/08/26 06:51:59;;;;;;;16.70;9.70;;;15.10;99.90;;;;;;4975212;28;20200;-76
2021/08/26 06:54:25;;;;;;;12.93;8.97;;;15.10;99.90;;;;;;4959935;28;20246;-76
2021/08/26 06:56:50;;;;;;;14.20;9.57;;;15.10;99.90;;;;;;4956820;29;20180;-76
2021/08/26 06:59:16;;;;;;;21.47;9.97;;;15.20;99.90;;;;;;4956157;29;20262;-76
2021/08/26 07:01:41;;;;;;;13.40;9.43;;;15.20;99.90;;;;;;4955221;29;20200;-76
2021/08/26 07:04:07;;;;;;;19.37;9.40;;;15.20;99.90;;;;;;4946980;29;20208;-76
2021/08/26 07:06:32;;;;;;;14.60;8.90;;;15.20;99.90;;;;;;4936733;29;20217;-77
2021/08/26 07:08:58;;;;;;;16.10;9.03;;;15.30;99.90;;;;;;4951221;29;20205;-75
2021/08/26 07:11:23;;;;;;;13.67;10.80;;;15.40;99.90;;;;;;4955511;29;20231;-75
2021/08/26 07:13:49;;;;;;;13.27;10.30;;;15.40;99.90;;;;;;4955480;28;20258;-77
2021/08/26 07:16:15;;;;;;;14.67;9.70;;;15.50;99.90;;;;;;4954405;29;20263;-77
2021/08/26 07:18:40;;;;;;;17.80;10.07;;;15.40;99.90;;;;;;4955757;29;20180;-77
2021/08/26 07:21:06;;;;;;;14.20;10.03;;;15.50;99.90;;;;;;4955437;29;20258;-77
2021/08/26 07:23:31;;;;;;;21.70;10.10;;;15.60;99.90;;;;;;4955796;29;20239;-77
2021/08/26 07:25:58;;;;;;;15.80;10.20;;;15.60;99.90;;;;;;4955693;29;20316;-77
2021/08/26 07:28:24;;;;;;;18.17;10.13;;;15.60;99.90;;;;;;4954263;29;20250;-76
2021/08/26 07:30:49;;;;;;;13.13;9.40;;;15.70;99.90;;;;;;4955340;28;20526;-76
2021/08/26 07:33:15;;;;;;;16.83;10.30;;;15.70;99.90;;;;;;4955042;29;20511;-77
2021/08/26 07:35:40;;;;;;;15.47;11.70;;;15.80;99.90;;;;;;4955242;29;20263;-77
2021/08/26 07:38:06;;;;;;;19.20;11.00;;;15.80;99.90;;;;;;4954864;29;20609;-75
2021/08/26 07:40:32;;;;;;;15.10;11.30;;;15.80;99.90;;;;;;4950349;28;20195;-73
2021/08/26 07:42:57;;;;;;;18.10;11.33;;;15.80;99.90;;;;;;4953227;29;20189;-75
2021/08/26 07:45:23;;;;;;;16.63;9.90;;;15.80;99.90;;;;;;4953090;29;20190;-74
2021/08/26 07:47:48;;;;;;;14.80;9.87;;;15.80;99.90;;;;;;4954721;29;20603;-75
2021/08/26 07:50:14;;;;;;;14.40;10.23;;;15.80;99.90;;;;;;4953524;29;20188;-74
2021/08/26 07:52:39;;;;;;;14.90;10.03;;;15.80;99.90;;;;;;4954596;29;20294;-74
2021/08/26 07:55:06;;;;;;;17.23;9.63;;;15.80;99.90;;;;;;4954038;29;20212;-76
2021/08/26 07:57:32;;;;;;;17.30;9.60;;;15.80;99.90;;;;;;4954053;29;20234;-75
2021/08/26 07:59:58;;;;;;;22.20;9.50;;;15.80;99.90;;;;;;4953763;29;20499;-75
2021/08/26 08:02:24;;;;;;;11.73;8.13;;;15.90;99.90;;;;;;4953645;29;20538;-75
2021/08/26 08:04:49;;;;;;;11.33;8.80;;;15.90;99.90;;;;;;4942240;29;20188;-74
2021/08/26 08:07:15;;;;;;;17.77;7.90;;;15.90;99.90;;;;;;4954536;29;20192;-76
2021/08/26 08:09:40;;;;;;;20.87;9.63;;;15.90;99.90;;;;;;4953837;29;20184;-75
2021/08/26 08:12:06;;;;;;;13.23;9.33;;;16.00;99.90;;;;;;4953564;29;20640;-75
2021/08/26 08:14:32;;;;;;;16.47;8.97;;;15.90;99.90;;;;;;4953374;29;20223;-76
2021/08/26 08:16:58;;;;;;;14.07;10.13;;;15.90;99.90;;;;;;4954550;29;20195;-77
2021/08/26 08:19:25;;;;;;;12.33;10.40;;;15.80;99.90;;;;;;4953086;28;20211;-75
2021/08/26 08:21:50;;;;;;;16.83;12.67;;;15.70;99.90;;;;;;4959656;28;20447;-74
2021/08/26 08:24:16;;;;;;;15.23;12.00;;;15.60;99.90;;;;;;4953018;28;20425;-74
2021/08/26 08:26:41;;;;;;;19.50;12.60;;;15.50;99.90;;;;;;4954178;29;20187;-76
2021/08/26 08:29:07;;;;;;;19.87;14.00;;;15.30;99.90;;;;;;4953845;29;20177;-76
2021/08/26 08:31:33;;;;;;;16.60;12.27;;;15.10;99.90;;;;;;4952889;29;20624;-76
2021/08/26 08:34:00;;;;;;;22.50;14.03;;;15.10;99.90;;;;;;4953056;28;20633;-76
2021/08/26 08:36:25;;;;;;;20.00;13.17;;;15.00;99.90;;;;;;4953909;28;20208;-77
2021/08/26 08:38:51;;;;;;;17.67;13.90;;;15.10;99.90;;;;;;4954098;29;20450;-75
2021/08/26 08:41:18;;;;;;;19.20;13.30;;;15.00;99.90;;;;;;4952872;28;20235;-77
2021/08/26 08:43:45;;;;;;;17.20;14.17;;;15.00;99.90;;;;;;4953558;28;20428;-76
2021/08/26 08:46:10;;;;;;;19.90;13.50;;;15.00;99.90;;;;;;4953838;28;20423;-75
2021/08/26 08:48:40;;;;;;;18.90;12.73;;;15.10;99.90;;;;;;4954054;29;20412;-78
2021/08/26 08:51:07;;;;;;;19.27;14.00;;;15.00;99.90;;;;;;4952569;28;20689;-77
2021/08/26 08:53:33;;;;;;;17.30;12.47;;;15.10;99.90;;;;;;4952490;28;20428;-77
2021/08/26 08:56:02;;;;;;;16.60;13.13;;;15.20;99.90;;;;;;4953822;28;20418;-77
2021/08/26 08:58:28;;;;;;;20.13;13.80;;;15.30;99.90;;;;;;4954389;29;20196;-75
2021/08/26 09:00:53;;;;;;;15.90;13.50;;;15.50;99.90;;;;;;4952727;29;20516;-79
2021/08/26 09:03:19;;;;;;;17.37;13.90;;;15.40;99.90;;;;;;4951892;29;20187;-76
2021/08/26 09:05:55;;;;;;;24.20;15.33;;;15.50;99.90;;;;;;4951630;29;20191;-75
2021/08/26 09:08:22;;;;;;;21.00;14.50;;;15.60;99.90;;;;;;4952957;28;20410;-76
2021/08/26 09:10:53;;;;;;;17.03;14.90;;;15.80;99.90;;;;;;4952433;28;20448;-77
2021/08/26 09:13:32;;;;;;;16.60;14.10;;;15.80;99.90;;;;;;4953670;28;20499;-76
2021/08/26 09:15:58;;;;;;;20.63;14.87;;;15.90;99.90;;;;;;4961730;28;20584;-76
2021/08/26 09:18:24;;;;;;;17.80;14.60;;;15.90;99.90;;;;;;4963559;28;21373;-76
2021/08/26 09:20:54;;;;;;;22.50;13.90;;;15.90;99.90;;;;;;4951019;29;20455;-74
2021/08/26 09:23:21;;;;;;;21.07;15.57;;;15.90;99.90;;;;;;4953083;28;20409;-76
2021/08/26 09:25:46;;;;;;;16.00;14.10;;;15.80;99.90;;;;;;4951559;29;20507;-76
2021/08/26 09:28:29;;;;;;;18.10;15.83;;;15.80;99.90;;;;;;4953038;28;20515;-76
2021/08/26 09:31:17;;;;;;;18.37;14.80;;;15.70;99.90;;;;;;4952210;28;20196;-77
2021/08/26 09:33:59;;;;;;;18.47;15.10;;;15.60;99.90;;;;;;4952766;28;20408;-76
2021/08/26 09:36:32;;;;;;;17.03;13.47;;;15.50;99.90;;;;;;4954742;28;20423;-75
2021/08/26 09:39:05;;;;;;;13.77;12.33;;;15.50;99.90;;;;;;4956969;28;20503;-76
2021/08/26 09:41:44;;;;;;;16.97;12.10;;;15.30;99.90;;;;;;4955815;29;20455;-74
2021/08/26 09:44:11;;;;;;;15.23;12.20;;;15.20;99.90;;;;;;4956717;28;20478;-74
2021/08/26 09:46:37;;;;;;;14.33;12.93;;;15.10;99.90;;;;;;4956417;28;20924;-74
2021/08/26 09:49:06;;;;;;;15.27;12.83;;;15.10;99.90;;;;;;4956534;28;20526;-73
2021/08/26 09:51:32;;;;;;;18.43;12.13;;;15.20;99.90;;;;;;4955681;28;20440;-75
2021/08/26 09:53:58;;;;;;;14.97;12.90;;;15.30;99.90;;;;;;4956539;29;20460;-74
2021/08/26 09:56:24;;;;;;;13.30;12.07;;;15.40;99.90;;;;;;4954796;29;20523;-74
2021/08/26 09:58:54;;;;;;;18.67;14.23;;;15.40;99.90;;;;;;4955379;29;20531;-74
2021/08/26 10:01:21;;;;;;;11.90;10.80;;;15.40;99.90;;;;;;4955548;28;20200;-75
2021/08/26 10:03:47;;;;;;;10.07;9.07;;;15.40;99.90;;;;;;4973104;28;20455;-74
2021/08/26 10:06:15;;;;;;;11.50;8.03;;;15.30;99.90;;;;;;4975538;28;20994;-75
2021/08/26 10:08:42;;;;;;;7.33;6.67;;;15.30;99.90;;;;;;4975088;28;20412;-75
2021/08/26 10:11:10;;;;;;;7.00;6.40;;;15.20;99.90;;;;;;4973019;28;20578;-74
2021/08/26 10:13:39;;;;;;;7.00;6.40;;;15.10;99.90;;;;;;4975400;28;20447;-75
2021/08/26 10:16:05;;;;;;;6.50;5.50;;;15.00;99.90;;;;;;4975608;28;20410;-75
2021/08/26 10:18:30;;;;;;;7.10;6.13;;;15.10;99.90;;;;;;4974711;28;20411;-76
2021/08/26 10:20:57;;;;;;;6.20;4.93;;;15.00;99.90;;;;;;4965377;28;20196;-75
2021/08/26 10:23:23;;;;;;;4.37;3.97;;;15.00;99.90;;;;;;4955761;29;20234;-74
2021/08/26 10:25:50;;;;;;;4.80;4.40;;;15.00;99.90;;;;;;4955769;29;20910;-75
2021/08/26 10:28:17;;;;;;;4.20;3.63;;;15.00;99.90;;;;;;4937815;29;20910;-74
2021/08/26 10:30:43;;;;;;;5.07;4.67;;;15.00;99.90;;;;;;4934458;29;20429;-75
2021/08/26 10:33:32;;;;;;;5.20;4.50;;;15.10;99.90;;;;;;4935992;29;20441;-75
2021/08/26 10:36:01;;;;;;;4.93;4.53;;;15.20;99.90;;;;;;4936644;29;20496;-75
2021/08/26 10:38:28;;;;;;;3.57;3.37;;;15.40;99.90;;;;;;4936567;29;20409;-74
2021/08/26 10:40:59;;;;;;;3.77;3.50;;;15.50;99.90;;;;;;4954785;29;20425;-74
2021/08/26 10:43:37;;;;;;;4.30;3.90;;;15.80;99.90;;;;;;4955415;29;20436;-75
2021/08/26 10:46:08;;;;;;;3.90;3.70;;;16.00;99.90;;;;;;4955752;29;20399;-74
2021/08/26 10:48:34;;;;;;;5.00;4.50;;;16.20;99.90;;;;;;4964667;28;20490;-75
2021/08/26 10:51:15;;;;;;;4.80;4.40;;;16.50;99.90;;;;;;4973883;28;20438;-76
2021/08/26 10:53:44;;;;;;;4.67;4.27;;;16.70;99.90;;;;;;4973783;28;20438;-77
2021/08/26 10:56:23;;;;;;;4.37;4.07;;;17.10;99.90;;;;;;4964774;28;20953;-75
2021/08/26 10:58:59;;;;;;;4.80;4.17;;;17.50;99.90;;;;;;4944860;29;20977;-75
2021/08/26 11:01:28;;;;;;;6.20;4.60;;;18.00;99.90;;;;;;4935628;29;20433;-77
2021/08/26 11:03:55;;;;;;;4.67;4.27;;;18.60;99.90;;;;;;4936569;29;20494;-75
2021/08/26 11:06:24;;;;;;;4.63;4.07;;;19.00;99.90;;;;;;4936178;29;20492;-75
2021/08/26 11:08:52;;;;;;;4.20;3.80;;;18.90;99.90;;;;;;4936101;29;20410;-75
2021/08/26 11:11:27;;;;;;;4.27;3.87;;;18.80;99.90;;;;;;4934434;29;20455;-76
2021/08/26 11:14:07;;;;;;;6.00;4.73;;;18.60;99.90;;;;;;4935991;29;20495;-77
2021/08/26 11:16:35;;;;;;;7.50;4.57;;;18.60;99.90;;;;;;4950504;29;20482;-77
2021/08/26 11:19:16;;;;;;;6.83;5.17;;;18.50;99.90;;;;;;4954955;28;20420;-75
2021/08/26 11:21:44;;;;;;;6.93;5.20;;;18.60;99.90;;;;;;4953597;29;20522;-76
2021/08/26 11:24:15;;;;;;;9.17;5.47;;;18.60;99.90;;;;;;4954988;29;20783;-76
2021/08/26 11:26:50;;;;;;;6.17;5.27;;;18.70;99.90;;;;;;4955280;29;20412;-76
2021/08/26 11:29:24;;;;;;;5.13;4.63;;;18.80;99.90;;;;;;4954943;29;20414;-76
2021/08/26 11:32:00;;;;;;;9.27;5.60;;;18.80;99.90;;;;;;4952202;29;21040;-75
2021/08/26 11:34:30;;;;;;;5.43;4.93;;;18.60;99.90;;;;;;4946388;29;20550;-76
2021/08/26 11:37:01;;;;;;;7.50;5.33;;;18.50;99.90;;;;;;4936115;29;20906;-76
2021/08/26 11:39:29;;;;;;;8.50;5.20;;;18.50;99.90;;;;;;4935792;29;20903;-75
2021/08/26 11:41:55;;;;;;;7.50;5.93;;;18.20;99.90;;;;;;4934586;29;20437;-75
2021/08/26 11:44:20;;;;;;;7.30;5.27;;;18.00;99.90;;;;;;4935804;29;20418;-76
2021/08/26 11:46:46;;;;;;;7.83;5.87;;;17.90;99.90;;;;;;4935814;29;20252;-76
2021/08/26 11:49:11;;;;;;;10.33;6.50;;;17.80;99.90;;;;;;4935553;29;20276;-76
2021/08/26 11:51:37;;;;;;;6.90;5.50;;;17.80;99.90;;;;;;4934299;29;20714;-75
2021/08/26 11:54:18;;;;;;;10.33;5.87;;;17.90;99.90;;;;;;4934046;29;20669;-75
2021/08/26 11:56:52;;;;;;;7.97;5.63;;;18.00;99.90;;;;;;4935434;29;20201;-75
2021/08/26 11:59:34;;;;;;;9.50;5.70;;;18.20;99.90;;;;;;4935854;29;20564;-76
2021/08/26 12:02:16;;;;;;;8.03;5.93;;;18.20;99.90;;;;;;4954027;28;20515;-75
2021/08/26 12:04:46;;;;;;;5.33;4.83;;;18.10;99.90;;;;;;4954743;28;20421;-75
2021/08/26 12:07:28;;;;;;;8.40;6.07;;;18.00;99.90;;;;;;4953319;28;20424;-75
2021/08/26 12:10:08;;;;;;;10.03;5.67;;;18.00;99.90;;;;;;4953734;28;21043;-75
2021/08/26 12:12:33;;;;;;;6.63;5.60;;;18.10;99.90;;;;;;4947540;29;20468;-75
2021/08/26 12:14:59;;;;;;;7.00;5.73;;;18.30;99.90;;;;;;4942526;29;20860;-76
2021/08/26 12:17:25;;;;;;;6.73;5.80;;;18.50;99.90;;;;;;4954253;29;20184;-76
2021/08/26 12:19:53;;;;;;;9.57;5.50;;;18.90;99.90;;;;;;4953541;29;20179;-75
2021/08/26 12:22:23;;;;;;;7.03;5.30;;;19.20;99.90;;;;;;4951695;29;20204;-75
2021/08/26 12:24:53;;;;;;;7.00;5.60;;;19.40;99.90;;;;;;4953423;29;20424;-75
2021/08/26 12:27:19;;;;;;;7.30;6.07;;;19.70;99.90;;;;;;4954125;29;20430;-76
2021/08/26 12:29:49;;;;;;;7.47;6.00;;;20.10;99.90;;;;;;4953198;29;20424;-75
2021/08/26 12:32:36;;;;;;;9.57;5.43;;;20.20;99.90;;;;;;4953678;29;20440;-76
2021/08/26 12:35:39;;;;;;;8.30;5.20;;;20.30;99.90;;;;;;4942864;29;20460;-76
2021/08/26 12:38:05;;;;;;;7.17;5.83;;;20.10;99.90;;;;;;4913625;29;20493;-75
2021/08/26 12:40:47;;;;;;;8.27;6.00;;;19.80;99.90;;;;;;4939450;29;20413;-75
2021/08/26 12:43:13;;;;;;;5.93;5.33;;;19.60;99.90;;;;;;4953509;28;20179;-75
2021/08/26 12:45:38;;;;;;;6.07;5.50;;;19.50;99.90;;;;;;4953224;28;20424;-75
2021/08/26 12:48:24;;;;;;;12.63;5.67;;;19.30;99.90;;;;;;4953838;29;20208;-76
2021/08/26 12:51:05;;;;;;;8.60;6.03;;;19.10;99.90;;;;;;4952899;28;20610;-75
2021/08/26 12:53:30;;;;;;;6.37;5.70;;;18.80;99.90;;;;;;4952660;29;20412;-75
2021/08/26 12:55:58;;;;;;;8.50;5.70;;;18.70;99.90;;;;;;4953008;29;20471;-75
2021/08/26 12:58:23;;;;;;;6.43;5.27;;;18.70;99.90;;;;;;4953668;29;20650;-76
2021/08/26 13:00:49;;;;;;;7.63;5.57;;;18.90;99.90;;;;;;4952760;29;20435;-75
2021/08/26 13:03:14;;;;;;;7.03;5.60;;;19.00;99.90;;;;;;4953289;29;20180;-76
2021/08/26 13:05:51;;;;;;;8.03;5.47;;;18.90;99.90;;;;;;4952934;29;20192;-76
2021/08/26 13:08:18;;;;;;;6.23;5.40;;;18.80;99.90;;;;;;4952739;29;20201;-77
2021/08/26 13:10:45;;;;;;;6.63;5.40;;;18.90;99.90;;;;;;4952606;28;20475;-76
2021/08/26 13:13:16;;;;;;;7.00;5.87;;;18.90;99.90;;;;;;4953423;29;20421;-75
2021/08/26 13:15:46;;;;;;;7.90;5.97;;;19.00;99.90;;;;;;4953424;28;20834;-75
2021/08/26 13:18:11;;;;;;;8.00;6.23;;;19.10;99.90;;;;;;4952085;29;20443;-75
2021/08/26 13:20:37;;;;;;;7.77;6.17;;;19.10;99.90;;;;;;4953442;29;20499;-75
2021/08/26 13:23:09;;;;;;;6.87;5.23;;;19.20;99.90;;;;;;4953046;29;20173;-75
2021/08/26 13:25:36;;;;;;;6.33;4.87;;;19.40;99.90;;;;;;4953434;29;20185;-75
2021/08/26 13:28:02;;;;;;;6.80;5.37;;;19.50;99.90;;;;;;4953287;29;20508;-75
2021/08/26 13:30:28;;;;;;;6.60;5.50;;;19.80;99.90;;;;;;4953285;29;20503;-76
2021/08/26 13:32:53;;;;;;;5.10;4.60;;;19.90;99.90;;;;;;4953044;29;20496;-75
2021/08/26 13:35:19;;;;;;;5.90;5.27;;;19.80;99.90;;;;;;4953193;29;20243;-75
2021/08/26 13:37:47;;;;;;;6.60;4.90;;;19.80;99.90;;;;;;4953392;29;20177;-75
2021/08/26 13:40:16;;;;;;;5.40;4.90;;;19.60;99.90;;;;;;4949678;28;20692;-75
2021/08/26 13:42:42;;;;;;;6.60;5.90;;;19.50;99.90;;;;;;4952790;28;20442;-75
2021/08/26 13:45:09;;;;;;;8.10;4.93;;;19.40;99.90;;;;;;4952838;28;20444;-75
2021/08/26 13:47:35;;;;;;;7.30;5.13;;;19.60;99.90;;;;;;4953140;28;20510;-75
2021/08/26 13:50:01;;;;;;;5.87;5.00;;;19.70;99.90;;;;;;4952484;29;20512;-76
2021/08/26 13:52:27;;;;;;;7.17;5.37;;;19.60;99.90;;;;;;4952771;29;20681;-76
2021/08/26 13:54:53;;;;;;;8.50;5.23;;;19.60;99.90;;;;;;4953144;28;20872;-77
2021/08/26 13:57:20;;;;;;;10.07;6.20;;;19.60;99.90;;;;;;4963082;28;20177;-75
2021/08/26 13:59:45;;;;;;;7.17;5.67;;;19.50;99.90;;;;;;4952962;29;20413;-76
2021/08/26 14:02:11;;;;;;;7.50;5.00;;;19.50;99.90;;;;;;4952124;29;20486;-74
2021/08/26 14:04:37;;;;;;;6.00;5.07;;;19.30;99.90;;;;;;4949860;28;20188;-75
2021/08/26 14:07:04;;;;;;;6.60;5.50;;;19.40;99.90;;;;;;4956834;28;20180;-74
2021/08/26 14:09:30;;;;;;;8.23;5.00;;;19.40;99.90;;;;;;4951859;29;20246;-75
2021/08/26 14:11:55;;;;;;;6.57;5.80;;;19.50;99.90;;;;;;4952559;29;20542;-76
2021/08/26 14:14:21;;;;;;;9.50;6.10;;;19.40;99.90;;;;;;4951852;29;20212;-76
2021/08/26 14:16:46;;;;;;;6.93;4.57;;;19.30;99.90;;;;;;4945891;29;20197;-74
2021/08/26 14:19:12;;;;;;;7.90;5.83;;;19.30;99.90;;;;;;4932328;28;20252;-75
2021/08/26 14:21:38;;;;;;;8.70;5.53;;;19.20;99.90;;;;;;4950965;28;20197;-75
2021/08/26 14:24:05;;;;;;;7.93;5.43;;;19.30;99.90;;;;;;4964015;28;20194;-74
2021/08/26 14:26:30;;;;;;;7.37;5.50;;;19.20;99.90;;;;;;4965477;28;20580;-75
2021/08/26 14:28:56;;;;;;;6.93;4.83;;;19.20;99.90;;;;;;4955383;29;20423;-75
2021/08/26 14:31:22;;;;;;;7.33;4.90;;;19.20;99.90;;;;;;4953450;29;20207;-75
2021/08/26 14:33:47;;;;;;;5.97;4.33;;;19.00;99.90;;;;;;4935900;29;20252;-75
2021/08/26 14:36:13;;;;;;;5.33;4.20;;;19.00;99.90;;;;;;4945813;29;20247;-75
2021/08/26 14:38:38;;;;;;;6.70;4.57;;;18.80;99.90;;;;;;4941971;29;20213;-75
2021/08/26 14:41:04;;;;;;;7.60;5.03;;;18.90;99.90;;;;;;4937405;29;20189;-75
2021/08/26 14:43:30;;;;;;;8.00;4.87;;;18.90;99.90;;;;;;4955819;29;20173;-76
2021/08/26 14:45:56;;;;;;;6.37;4.70;;;19.00;99.90;;;;;;4955258;29;20196;-75
2021/08/26 14:48:22;;;;;;;5.40;4.40;;;19.00;99.90;;;;;;4937491;29;20221;-74
2021/08/26 14:50:47;;;;;;;5.80;5.10;;;19.10;99.90;;;;;;4941379;29;20424;-74
2021/08/26 14:53:13;;;;;;;9.10;4.70;;;19.10;99.90;;;;;;4954853;29;20195;-74
2021/08/26 14:55:39;;;;;;;8.63;5.17;;;19.00;99.90;;;;;;4946571;29;20287;-74
2021/08/26 14:58:04;;;;;;;10.67;4.77;;;19.00;99.90;;;;;;4939159;29;20851;-74
2021/08/26 15:00:30;;;;;;;6.47;4.60;;;18.90;99.90;;;;;;4950643;29;20229;-73
2021/08/26 15:02:56;;;;;;;6.73;5.27;;;18.60;99.90;;;;;;4936333;29;20174;-79
2021/08/26 15:05:21;;;;;;;7.83;5.27;;;18.50;99.90;;;;;;4947651;29;20181;-79
2021/08/26 15:07:47;;;;;;;7.70;4.73;;;18.30;99.90;;;;;;4955770;29;20181;-78
2021/08/26 15:10:13;;;;;;;8.93;4.63;;;18.20;99.90;;;;;;4955390;28;20203;-79
2021/08/26 15:12:39;;;;;;;8.37;4.80;;;18.10;99.90;;;;;;4955456;29;20532;-76
2021/08/26 15:15:06;;;;;;;5.00;4.43;;;18.00;99.90;;;;;;4955747;29;20567;-79
2021/08/26 15:17:32;;;;;;;8.70;5.63;;;17.80;99.90;;;;;;4943721;29;20798;-78
2021/08/26 15:19:58;;;;;;;15.00;5.03;;;17.80;99.90;;;;;;4942002;28;20432;-79
2021/08/26 15:22:24;;;;;;;9.97;4.53;;;17.80;99.90;;;;;;4954032;29;20448;-78
2021/08/26 15:24:49;;;;;;;5.60;4.10;;;17.90;99.90;;;;;;4953778;29;20204;-79
2021/08/26 15:27:15;;;;;;;7.77;4.50;;;18.00;99.90;;;;;;4954667;29;20184;-78
2021/08/26 15:29:46;;;;;;;5.73;4.63;;;18.00;99.90;;;;;;4955194;29;20550;-78
2021/08/26 15:32:13;;;;;;;6.63;4.50;;;18.00;99.90;;;;;;4954528;29;20475;-78
2021/08/26 15:34:38;;;;;;;9.43;4.80;;;17.90;99.90;;;;;;4954586;28;20460;-79
2021/08/26 15:37:04;;;;;;;6.47;4.10;;;17.90;99.90;;;;;;4953672;29;20952;-78
2021/08/26 15:39:29;;;;;;;6.20;4.60;;;17.90;99.90;;;;;;4955083;29;20268;-78
2021/08/26 15:41:55;;;;;;;7.50;4.00;;;17.90;99.90;;;;;;4953235;29;20606;-76
2021/08/26 15:44:23;;;;;;;6.13;5.53;;;17.90;99.90;;;;;;4953553;29;20176;-79
2021/08/26 15:46:49;;;;;;;9.20;4.77;;;17.80;99.90;;;;;;4942976;29;20512;-78
2021/08/26 15:49:23;;;;;;;8.37;4.30;;;17.70;99.90;;;;;;4954534;28;20492;-79
2021/08/26 15:51:56;;;;;;;6.13;5.40;;;17.70;99.90;;;;;;4953464;29;20284;-78
2021/08/26 15:54:27;;;;;;;4.10;3.70;;;17.70;99.90;;;;;;4954420;28;20503;-78
2021/08/26 15:57:09;;;;;;;6.27;4.50;;;17.70;99.90;;;;;;4955010;28;20416;-78
2021/08/26 15:59:42;;;;;;;5.37;4.07;;;17.80;99.90;;;;;;4954192;29;20475;-79
2021/08/26 16:02:11;;;;;;;6.07;4.67;;;17.90;99.90;;;;;;4954417;28;20436;-78
2021/08/26 16:04:36;;;;;;;4.40;4.00;;;17.80;99.90;;;;;;4954651;29;20416;-78
2021/08/26 16:07:02;;;;;;;4.87;3.60;;;17.90;99.90;;;;;;4954462;29;20844;-78
2021/08/26 16:09:28;;;;;;;5.80;4.50;;;17.80;99.90;;;;;;4954328;29;20295;-79
2021/08/26 16:11:54;;;;;;;5.57;4.27;;;17.80;99.90;;;;;;4953976;28;21169;-78
2021/08/26 16:14:19;;;;;;;4.70;4.03;;;17.70;99.90;;;;;;4953959;28;20209;-78
2021/08/26 16:16:45;;;;;;;16.97;6.10;;;17.60;99.90;;;;;;4954267;29;20177;-78
2021/08/26 16:19:10;;;;;;;7.00;4.23;;;17.50;99.90;;;;;;4954040;29;20212;-78
2021/08/26 16:21:36;;;;;;;5.63;5.00;;;17.40;99.90;;;;;;4954033;28;20192;-78
2021/08/26 16:24:02;;;;;;;3.90;3.53;;;17.30;99.90;;;;;;4954180;29;20219;-78
2021/08/26 16:26:27;;;;;;;5.03;4.10;;;17.30;99.90;;;;;;4953909;28;20674;-79
2021/08/26 16:28:53;;;;;;;6.10;4.30;;;17.30;99.90;;;;;;4953167;29;20515;-77
2021/08/26 16:31:20;;;;;;;5.60;3.83;;;17.30;99.90;;;;;;4953836;28;20264;-79
2021/08/26 16:33:46;;;;;;;5.23;4.03;;;17.20;99.90;;;;;;4954627;28;20176;-79
2021/08/26 16:36:12;;;;;;;5.33;4.17;;;17.30;99.90;;;;;;4954541;29;20387;-79
2021/08/26 16:38:37;;;;;;;7.20;3.67;;;17.30;99.90;;;;;;4955009;29;20259;-79
2021/08/26 16:41:03;;;;;;;3.90;3.00;;;17.30;99.90;;;;;;4954011;29;20263;-79
2021/08/26 16:43:29;;;;;;;4.03;3.33;;;17.30;99.90;;;;;;4954182;29;20196;-79
2021/08/26 16:45:54;;;;;;;2.90;2.70;;;17.30;99.90;;;;;;4953619;28;20177;-80
2021/08/26 16:48:20;;;;;;;2.53;2.33;;;17.20;99.90;;;;;;4954271;29;20208;-79
2021/08/26 16:50:45;;;;;;;4.60;3.40;;;17.30;99.90;;;;;;4953912;29;20531;-78
2021/08/26 16:53:11;;;;;;;4.83;2.93;;;17.30;99.90;;;;;;4953998;28;20185;-79
2021/08/26 16:55:36;;;;;;;3.10;2.80;;;17.30;99.90;;;;;;4953947;29;20243;-79
2021/08/26 16:58:02;;;;;;;4.20;2.97;;;17.20;99.90;;;;;;4953893;29;20541;-79
2021/08/26 17:00:28;;;;;;;4.57;3.10;;;17.20;99.90;;;;;;4953893;28;20184;-79
2021/08/26 17:02:54;;;;;;;3.47;3.17;;;17.20;99.90;;;;;;4953708;28;20592;-79
2021/08/26 17:05:19;;;;;;;3.53;3.10;;;17.30;99.90;;;;;;4953935;29;20443;-78
2021/08/26 17:07:47;;;;;;;4.20;3.00;;;17.30;99.90;;;;;;4953894;29;20227;-80
2021/08/26 17:10:12;;;;;;;3.77;2.90;;;17.40;99.90;;;;;;4953720;28;20200;-79
2021/08/26 17:12:38;;;;;;;6.40;2.60;;;17.40;99.90;;;;;;4951722;28;20436;-79
2021/08/26 17:15:07;;;;;;;3.23;2.93;;;17.50;99.90;;;;;;4956720;28;20239;-78